Time;durP1;ratioP1;P1;durP2;ratioP2;P2;SDS_P1;SDS_P2;PMS_P1;PMS_P2;Temp;Humidity;BMP_temperature;BMP_pressure;BME280_temperature;BME280_humidity;BME280_pressure;Samples;Min_cycle;Max_cycle;Signal;HPM_P1;HPM_P2
2022/01/23 05:02:10;;;;;;;64.87;29.13;;;4.60;99.90;;;;;;5300390;23;20496;-76
2022/01/23 05:04:37;;;;;;;65.77;28.00;;;4.50;99.90;;;;;;4953686;29;20925;-76
2022/01/23 05:07:08;;;;;;;66.83;29.00;;;4.40;99.90;;;;;;4953485;29;20515;-76
2022/01/23 05:09:35;;;;;;;69.93;28.57;;;4.50;99.90;;;;;;4953689;29;20492;-76
2022/01/23 05:12:06;;;;;;;67.50;29.97;;;4.50;99.90;;;;;;4953361;28;21087;-77
2022/01/23 05:14:37;;;;;;;60.87;26.87;;;4.40;99.90;;;;;;4953814;29;20679;-78
2022/01/23 05:17:08;;;;;;;62.60;29.50;;;4.40;99.90;;;;;;4953679;29;20488;-76
2022/01/23 05:19:35;;;;;;;72.33;31.17;;;4.30;99.90;;;;;;4952766;28;20535;-76
2022/01/23 05:22:18;;;;;;;67.77;29.60;;;4.20;99.90;;;;;;4956495;28;21051;-77
2022/01/23 05:24:50;;;;;;;62.20;29.40;;;4.10;99.90;;;;;;4956859;29;20467;-76
2022/01/23 05:27:17;;;;;;;67.20;30.10;;;4.10;99.90;;;;;;4956833;29;20975;-76
2022/01/23 05:29:44;;;;;;;63.40;29.47;;;4.10;99.90;;;;;;4956713;29;20496;-77
2022/01/23 05:32:13;;;;;;;64.73;26.43;;;4.10;99.90;;;;;;4956807;28;20555;-76
2022/01/23 05:34:40;;;;;;;65.97;28.90;;;4.20;99.90;;;;;;4956834;29;20488;-76
2022/01/23 05:37:07;;;;;;;72.47;27.30;;;4.20;99.90;;;;;;4957199;29;20539;-76
2022/01/23 05:39:34;;;;;;;74.60;29.63;;;4.20;99.90;;;;;;4956206;29;20488;-77
2022/01/23 05:42:07;;;;;;;71.17;30.93;;;4.20;99.90;;;;;;4956720;28;20483;-76
2022/01/23 05:44:34;;;;;;;67.73;28.17;;;4.10;99.90;;;;;;4956541;29;20456;-76
2022/01/23 05:47:02;;;;;;;70.67;29.77;;;4.20;99.90;;;;;;4956483;29;20941;-77
2022/01/23 05:49:30;;;;;;;77.30;30.70;;;4.20;99.90;;;;;;4956260;29;20583;-77
2022/01/23 05:51:57;;;;;;;68.37;30.47;;;4.20;99.90;;;;;;4956273;28;20556;-76
2022/01/23 05:54:24;;;;;;;71.63;30.20;;;4.20;99.90;;;;;;4956586;29;20492;-76
2022/01/23 05:56:51;;;;;;;65.13;29.00;;;4.20;99.90;;;;;;4956330;29;21000;-77
2022/01/23 05:59:20;;;;;;;66.53;28.00;;;4.30;99.90;;;;;;4956181;29;20488;-76
2022/01/23 06:01:47;;;;;;;71.10;27.93;;;4.30;99.90;;;;;;4956039;28;20492;-76
2022/01/23 06:04:14;;;;;;;63.40;30.57;;;4.30;99.90;;;;;;4956277;29;20453;-76
2022/01/23 06:06:42;;;;;;;70.37;29.20;;;4.40;99.90;;;;;;4956062;29;20880;-77
2022/01/23 06:09:09;;;;;;;65.23;28.73;;;4.40;99.90;;;;;;4955947;29;20488;-77
2022/01/23 06:11:36;;;;;;;73.20;29.63;;;4.40;99.90;;;;;;4956206;28;20512;-76
2022/01/23 06:14:03;;;;;;;63.40;27.63;;;4.30;99.90;;;;;;4956169;29;20484;-76
2022/01/23 06:16:30;;;;;;;66.13;29.30;;;4.30;99.90;;;;;;4956092;29;20484;-76
2022/01/23 06:18:57;;;;;;;74.07;30.67;;;4.20;99.90;;;;;;4956204;29;20453;-78
2022/01/23 06:21:25;;;;;;;72.23;30.77;;;4.20;99.90;;;;;;4956156;28;20560;-76
2022/01/23 06:24:02;;;;;;;74.67;31.50;;;4.20;99.90;;;;;;4955838;29;20847;-76
2022/01/23 06:26:39;;;;;;;71.00;30.27;;;4.20;99.90;;;;;;4956261;29;20460;-76
2022/01/23 06:29:06;;;;;;;71.27;29.87;;;4.20;99.90;;;;;;4955783;29;20527;-76
2022/01/23 06:31:33;;;;;;;80.03;31.70;;;4.20;99.90;;;;;;4955307;28;20512;-76
2022/01/23 06:34:01;;;;;;;75.90;31.90;;;4.10;99.90;;;;;;4955973;29;20537;-76
2022/01/23 06:36:28;;;;;;;73.87;30.67;;;4.20;99.90;;;;;;4956013;29;20456;-76
2022/01/23 06:38:56;;;;;;;76.13;32.10;;;4.10;99.90;;;;;;4955501;29;20544;-77
2022/01/23 06:41:23;;;;;;;67.07;28.57;;;4.10;99.90;;;;;;4955670;28;20508;-76
2022/01/23 06:43:50;;;;;;;75.10;30.40;;;4.10;99.90;;;;;;4955999;29;20531;-76
2022/01/23 06:46:17;;;;;;;72.00;30.10;;;4.10;99.90;;;;;;4956040;29;20818;-76
2022/01/23 06:48:43;;;;;;;78.40;32.70;;;4.10;99.90;;;;;;4955661;29;20539;-76
2022/01/23 06:51:10;;;;;;;78.17;29.07;;;4.00;99.90;;;;;;4955291;28;21083;-77
2022/01/23 06:53:37;;;;;;;64.33;28.73;;;4.00;99.90;;;;;;4955736;29;20536;-76
2022/01/23 06:56:06;;;;;;;71.20;28.20;;;4.00;99.90;;;;;;4955757;29;20633;-76
2022/01/23 06:58:33;;;;;;;69.37;32.10;;;4.00;99.90;;;;;;4955645;29;20532;-77
2022/01/23 07:01:00;;;;;;;75.90;31.37;;;4.10;99.90;;;;;;4955270;28;20523;-76
2022/01/23 07:03:27;;;;;;;81.27;31.17;;;4.10;99.90;;;;;;4955625;29;20532;-76
2022/01/23 07:05:53;;;;;;;77.27;30.20;;;4.10;99.90;;;;;;4955701;29;20539;-76
2022/01/23 07:08:20;;;;;;;74.37;31.00;;;4.10;99.90;;;;;;4955447;29;20488;-76
2022/01/23 07:10:47;;;;;;;74.80;32.23;;;4.10;99.90;;;;;;4955396;28;20499;-76
2022/01/23 07:13:15;;;;;;;65.17;29.17;;;4.10;99.90;;;;;;4955200;29;20449;-76
2022/01/23 07:15:42;;;;;;;66.90;30.50;;;4.10;99.90;;;;;;4955285;29;20872;-76
2022/01/23 07:18:09;;;;;;;62.80;29.50;;;4.20;99.90;;;;;;4955293;29;20480;-75
2022/01/23 07:20:37;;;;;;;76.03;30.10;;;4.30;99.90;;;;;;4954669;28;20548;-75
2022/01/23 07:23:04;;;;;;;67.73;29.17;;;4.30;99.90;;;;;;4955154;29;20538;-71
2022/01/23 07:25:30;;;;;;;73.07;31.23;;;4.30;99.90;;;;;;4954813;29;20511;-71
2022/01/23 07:27:59;;;;;;;72.43;31.13;;;4.20;99.90;;;;;;4954586;29;20495;-71
2022/01/23 07:30:34;;;;;;;71.83;29.80;;;4.20;99.90;;;;;;4954457;28;20520;-71
2022/01/23 07:33:01;;;;;;;72.17;29.93;;;4.30;99.90;;;;;;4954891;29;20496;-75
2022/01/23 07:35:29;;;;;;;70.37;30.70;;;4.20;99.90;;;;;;4955019;29;20445;-76
2022/01/23 07:37:55;;;;;;;75.80;31.03;;;4.30;99.90;;;;;;4954582;29;20957;-76
2022/01/23 07:40:22;;;;;;;67.60;28.50;;;4.30;99.90;;;;;;4954359;28;21012;-76
2022/01/23 07:42:50;;;;;;;73.23;27.77;;;4.30;99.90;;;;;;4954341;28;20543;-76
2022/01/23 07:45:17;;;;;;;75.47;31.30;;;4.40;99.90;;;;;;4954592;29;20953;-76
2022/01/23 07:47:46;;;;;;;76.33;32.40;;;4.40;99.90;;;;;;4954691;29;20476;-76
2022/01/23 07:50:13;;;;;;;65.57;28.03;;;4.40;99.90;;;;;;4954219;28;20839;-76
2022/01/23 07:52:41;;;;;;;78.53;35.43;;;4.50;99.90;;;;;;4954459;29;20626;-76
2022/01/23 07:55:11;;;;;;;76.73;31.73;;;4.50;99.90;;;;;;4954619;29;20459;-76
2022/01/23 07:57:39;;;;;;;76.60;31.30;;;4.50;99.90;;;;;;4954717;29;20545;-76
2022/01/23 08:00:09;;;;;;;71.43;29.80;;;4.50;99.90;;;;;;4954392;29;20536;-76
2022/01/23 08:02:35;;;;;;;65.03;28.33;;;4.50;99.90;;;;;;4954277;28;20580;-76
2022/01/23 08:05:05;;;;;;;73.70;29.03;;;4.50;99.90;;;;;;4952177;29;20533;-75
2022/01/23 08:07:32;;;;;;;71.37;30.77;;;4.50;99.90;;;;;;4948200;29;20453;-74
2022/01/23 08:09:59;;;;;;;74.93;31.40;;;4.50;99.90;;;;;;4935036;29;20540;-75
2022/01/23 08:12:27;;;;;;;62.70;29.30;;;4.60;99.90;;;;;;4934857;29;20556;-75
2022/01/23 08:14:55;;;;;;;68.27;30.63;;;4.60;99.90;;;;;;4934962;29;20605;-75
2022/01/23 08:17:24;;;;;;;68.43;30.13;;;4.70;99.90;;;;;;4934817;29;21033;-75
2022/01/23 08:19:52;;;;;;;67.03;29.63;;;4.70;99.90;;;;;;4934900;29;20454;-76
2022/01/23 08:22:21;;;;;;;78.37;30.87;;;4.70;99.90;;;;;;4934874;29;20470;-76
2022/01/23 08:24:48;;;;;;;73.30;33.00;;;4.70;99.90;;;;;;4934928;29;20552;-76
2022/01/23 08:27:16;;;;;;;68.03;31.43;;;4.80;99.90;;;;;;4942347;29;20524;-76
2022/01/23 08:29:43;;;;;;;68.37;30.83;;;4.80;99.90;;;;;;4953934;29;20544;-75
2022/01/23 08:32:11;;;;;;;82.43;34.73;;;4.80;99.90;;;;;;4953380;29;20591;-82
2022/01/23 08:34:39;;;;;;;74.50;32.83;;;4.80;99.90;;;;;;4954927;29;20472;-75
2022/01/23 08:37:07;;;;;;;65.67;30.17;;;4.80;99.90;;;;;;4954116;29;20456;-75
2022/01/23 08:39:37;;;;;;;68.63;30.20;;;4.80;99.90;;;;;;4953824;29;20462;-74
2022/01/23 08:42:04;;;;;;;65.47;29.87;;;4.90;99.90;;;;;;4953644;29;20903;-73
2022/01/23 08:44:31;;;;;;;64.77;29.70;;;4.90;99.90;;;;;;4953978;29;20548;-75
2022/01/23 08:46:59;;;;;;;75.00;30.87;;;4.90;99.90;;;;;;4953669;29;20445;-74
2022/01/23 08:49:28;;;;;;;61.17;28.97;;;4.80;99.90;;;;;;4953536;29;20452;-73
2022/01/23 08:51:56;;;;;;;62.30;29.93;;;4.90;99.90;;;;;;4953666;29;20590;-74
2022/01/23 08:54:23;;;;;;;62.27;30.10;;;5.00;99.90;;;;;;4953662;28;20979;-73
2022/01/23 08:56:52;;;;;;;64.53;30.43;;;5.00;99.90;;;;;;4956918;29;20467;-73
2022/01/23 08:59:19;;;;;;;63.77;30.80;;;5.00;99.90;;;;;;4948312;29;20545;-71
2022/01/23 09:01:46;;;;;;;62.47;28.60;;;5.00;99.90;;;;;;4938247;29;20572;-73
2022/01/23 09:04:15;;;;;;;64.57;31.00;;;5.00;99.90;;;;;;4938240;29;21041;-73
2022/01/23 09:06:42;;;;;;;71.80;31.50;;;5.00;99.90;;;;;;4938669;29;20454;-74
2022/01/23 09:09:15;;;;;;;63.23;30.83;;;5.00;99.90;;;;;;4937949;29;20457;-74
2022/01/23 09:11:54;;;;;;;65.47;29.30;;;5.00;99.90;;;;;;4938000;29;20563;-75
2022/01/23 09:14:22;;;;;;;63.33;28.33;;;5.10;99.90;;;;;;4938319;29;20458;-74
2022/01/23 09:16:51;;;;;;;63.73;29.87;;;5.10;99.90;;;;;;4938239;29;21005;-76
2022/01/23 09:19:19;;;;;;;60.87;28.40;;;5.10;99.90;;;;;;4937815;29;21006;-76
2022/01/23 09:21:49;;;;;;;61.13;29.67;;;5.10;99.90;;;;;;4938273;29;20478;-77
2022/01/23 09:24:16;;;;;;;53.13;25.70;;;5.10;99.90;;;;;;4938001;29;20454;-76
2022/01/23 09:26:45;;;;;;;53.53;25.73;;;5.20;99.90;;;;;;4937731;29;20524;-76
2022/01/23 09:29:17;;;;;;;52.40;25.30;;;5.20;99.90;;;;;;4936761;29;20449;-76
2022/01/23 09:31:48;;;;;;;55.43;26.20;;;5.20;99.90;;;;;;4936762;29;20580;-77
2022/01/23 09:34:15;;;;;;;50.20;24.40;;;5.30;99.90;;;;;;4936668;29;20458;-77
2022/01/23 09:36:42;;;;;;;52.80;25.83;;;5.20;99.90;;;;;;4936740;29;20453;-76
2022/01/23 09:39:10;;;;;;;54.77;28.60;;;5.20;99.90;;;;;;4936408;29;20885;-77
2022/01/23 09:41:41;;;;;;;55.70;26.40;;;5.10;99.90;;;;;;4936646;29;20473;-76
2022/01/23 09:44:08;;;;;;;53.07;23.27;;;5.20;99.90;;;;;;4937635;29;20560;-76
2022/01/23 09:46:35;;;;;;;48.97;24.37;;;5.30;99.90;;;;;;4949564;29;20527;-76
2022/01/23 09:49:03;;;;;;;46.57;22.67;;;5.30;99.90;;;;;;4956332;29;20539;-77
2022/01/23 09:51:32;;;;;;;50.97;22.17;;;5.30;99.90;;;;;;4956426;29;20496;-77
2022/01/23 09:53:59;;;;;;;47.40;22.90;;;5.30;99.90;;;;;;4937551;29;20552;-76
2022/01/23 09:56:30;;;;;;;46.60;23.40;;;5.30;99.90;;;;;;4937011;29;20549;-76
2022/01/23 09:58:58;;;;;;;48.03;23.27;;;5.30;99.90;;;;;;4936761;29;20564;-76
2022/01/23 10:01:25;;;;;;;43.80;22.00;;;5.30;99.90;;;;;;4937222;29;20564;-76
2022/01/23 10:03:52;;;;;;;40.70;21.10;;;5.30;99.90;;;;;;4937550;29;20454;-76
2022/01/23 10:06:21;;;;;;;47.40;24.37;;;5.40;99.90;;;;;;4936443;29;20461;-76
2022/01/23 10:08:49;;;;;;;46.20;22.00;;;5.40;99.90;;;;;;4936940;29;21030;-76
2022/01/23 10:11:16;;;;;;;46.20;23.23;;;5.50;99.90;;;;;;4937237;29;20512;-76
2022/01/23 10:13:44;;;;;;;51.13;25.83;;;5.50;99.90;;;;;;4937179;29;20465;-76
2022/01/23 10:16:11;;;;;;;49.00;24.20;;;5.50;99.90;;;;;;4937291;29;20549;-76
2022/01/23 10:18:39;;;;;;;42.53;21.33;;;5.60;99.90;;;;;;4937240;29;20544;-76
2022/01/23 10:21:06;;;;;;;45.90;22.77;;;5.50;99.90;;;;;;4938031;29;20557;-76
2022/01/23 10:23:36;;;;;;;45.53;22.03;;;5.50;99.90;;;;;;4938609;29;20537;-76
2022/01/23 10:26:04;;;;;;;44.67;21.73;;;5.50;99.90;;;;;;4937019;29;20454;-76
2022/01/23 10:28:34;;;;;;;43.43;21.63;;;5.50;99.90;;;;;;4936820;29;20529;-76
2022/01/23 10:31:04;;;;;;;42.70;21.27;;;5.60;99.90;;;;;;4936699;29;20509;-76
2022/01/23 10:33:33;;;;;;;48.73;23.70;;;5.60;99.90;;;;;;4936483;29;20549;-76
2022/01/23 10:36:03;;;;;;;40.37;21.50;;;5.80;99.90;;;;;;4936855;29;20485;-76
2022/01/23 10:38:32;;;;;;;43.70;21.67;;;5.80;99.90;;;;;;4936647;29;20449;-76
2022/01/23 10:41:08;;;;;;;41.30;22.20;;;5.80;99.90;;;;;;4936571;29;20545;-76
2022/01/23 10:49:03;;;;;;;35.57;20.00;;;5.80;99.90;;;;;;4936285;29;20441;-76
2022/01/23 10:51:35;;;;;;;34.07;19.10;;;5.80;99.90;;;;;;4936182;29;20812;-76
2022/01/23 10:54:15;;;;;;;33.33;20.57;;;5.90;99.90;;;;;;4936213;29;20540;-76
2022/01/23 10:57:04;;;;;;;38.27;19.90;;;5.80;99.90;;;;;;4936470;29;20492;-76
2022/01/23 10:59:44;;;;;;;40.30;20.80;;;5.90;99.90;;;;;;4936142;29;20970;-76
2022/01/23 11:02:13;;;;;;;37.50;20.40;;;5.90;99.90;;;;;;4935864;29;20569;-76
2022/01/23 11:04:59;;;;;;;37.80;19.50;;;6.00;99.90;;;;;;4936139;29;20647;-76
2022/01/23 11:07:27;;;;;;;40.33;20.20;;;6.00;99.90;;;;;;4936548;29;20544;-76
2022/01/23 11:10:01;;;;;;;35.70;18.40;;;6.10;99.90;;;;;;4935897;29;20561;-76
2022/01/23 11:18:18;;;;;;;32.67;18.13;;;6.20;99.90;;;;;;4913672;29;20921;-76
2022/01/23 11:20:48;;;;;;;31.63;17.90;;;6.20;99.90;;;;;;4914325;29;20551;-76
2022/01/23 11:23:17;;;;;;;32.20;17.53;;;6.20;99.90;;;;;;4924213;29;20482;-76
2022/01/23 11:25:47;;;;;;;29.07;17.63;;;6.30;99.90;;;;;;4935834;29;20822;-76
2022/01/23 11:28:15;;;;;;;26.80;15.70;;;6.20;99.90;;;;;;4936338;29;20502;-76
2022/01/23 11:30:46;;;;;;;32.53;17.40;;;6.20;99.90;;;;;;4935792;29;20561;-76
2022/01/23 11:33:17;;;;;;;30.53;17.07;;;6.10;99.90;;;;;;4936742;29;20438;-76
2022/01/23 11:35:44;;;;;;;28.60;16.93;;;6.10;99.90;;;;;;4935635;29;20466;-76
2022/01/23 11:38:14;;;;;;;33.53;17.17;;;6.10;99.90;;;;;;4935956;29;20492;-76
2022/01/23 11:50:39;;;;;;;27.47;15.33;;;6.00;99.90;;;;;;4935253;29;20478;-76
2022/01/23 11:54:58;;;;;;;25.50;14.80;;;6.30;99.90;;;;;;4935195;29;20904;-76
2022/01/23 11:57:46;;;;;;;23.47;12.70;;;6.40;99.90;;;;;;4935280;29;20544;-76
2022/01/23 12:00:21;;;;;;;24.87;15.00;;;6.40;99.90;;;;;;4930881;29;20501;-76
2022/01/23 12:03:13;;;;;;;21.10;13.00;;;6.50;99.90;;;;;;4935266;29;20437;-76
2022/01/23 12:05:43;;;;;;;21.77;13.30;;;6.40;99.90;;;;;;4935570;29;20519;-76
2022/01/23 12:08:34;;;;;;;23.77;14.20;;;6.40;99.90;;;;;;4935081;29;20457;-76
2022/01/23 12:17:05;;;;;;;21.17;12.93;;;6.60;99.90;;;;;;4934154;29;20946;-76
2022/01/23 12:19:34;;;;;;;24.53;14.33;;;6.50;99.90;;;;;;4934764;29;20477;-76
2022/01/23 12:22:26;;;;;;;22.10;13.07;;;6.50;99.90;;;;;;4934722;29;20474;-76
2022/01/23 12:24:56;;;;;;;25.17;14.90;;;6.40;99.90;;;;;;4935035;29;20881;-76
2022/01/23 12:27:26;;;;;;;26.60;15.20;;;6.30;99.90;;;;;;4935292;29;20454;-76
2022/01/23 12:29:54;;;;;;;23.93;13.80;;;6.40;99.90;;;;;;4934731;29;20464;-76
2022/01/23 12:32:26;;;;;;;24.07;12.80;;;6.40;99.90;;;;;;4934654;29;20565;-76
2022/01/23 12:34:55;;;;;;;27.03;15.97;;;6.40;99.90;;;;;;4934932;29;20898;-76
2022/01/23 12:37:23;;;;;;;26.10;16.17;;;6.30;99.90;;;;;;4934653;29;20453;-76
2022/01/23 12:40:23;;;;;;;24.20;14.20;;;6.30;99.90;;;;;;4934971;29;20954;-76
2022/01/23 12:43:07;;;;;;;22.33;14.00;;;6.40;99.90;;;;;;4934736;29;20876;-76
2022/01/23 12:46:06;;;;;;;26.03;13.87;;;6.30;99.90;;;;;;4934730;29;20513;-76
2022/01/23 12:48:43;;;;;;;22.47;13.20;;;6.30;99.90;;;;;;4875844;29;20445;-76
2022/01/23 12:51:35;;;;;;;21.87;12.83;;;6.30;99.90;;;;;;4925495;29;20537;-76
2022/01/23 12:54:30;;;;;;;21.47;12.87;;;6.30;99.90;;;;;;4934744;29;20461;-76
2022/01/23 12:57:05;;;;;;;21.60;12.63;;;6.40;99.90;;;;;;4934987;29;20444;-76
2022/01/23 12:59:34;;;;;;;22.50;12.73;;;6.40;99.90;;;;;;4934817;29;20512;-76
2022/01/23 13:02:06;;;;;;;18.63;10.43;;;6.40;99.90;;;;;;4934298;29;21005;-76
2022/01/23 13:04:39;;;;;;;24.80;15.90;;;6.40;99.90;;;;;;4934373;29;20950;-76
2022/01/23 13:07:21;;;;;;;22.20;12.80;;;6.40;99.90;;;;;;4934474;29;20549;-76
2022/01/23 13:10:03;;;;;;;19.33;11.80;;;6.50;99.90;;;;;;4934452;29;20446;-76
2022/01/23 13:12:48;;;;;;;20.10;12.57;;;6.50;99.90;;;;;;4934610;29;20509;-76
2022/01/23 13:15:26;;;;;;;19.30;12.17;;;6.50;99.90;;;;;;4934478;29;20985;-76
2022/01/23 13:18:04;;;;;;;15.07;9.30;;;6.50;99.90;;;;;;4934314;29;20461;-76
2022/01/23 13:32:00;;;;;;;15.70;9.67;;;6.50;99.90;;;;;;4934124;29;20513;-77
2022/01/23 13:34:30;;;;;;;16.53;10.10;;;6.50;99.90;;;;;;4934590;29;20469;-76
2022/01/23 13:37:01;;;;;;;16.63;10.03;;;6.60;99.90;;;;;;4934624;29;20488;-76
2022/01/23 13:39:31;;;;;;;14.00;8.23;;;6.60;99.90;;;;;;4934242;29;20524;-76
2022/01/23 13:42:17;;;;;;;13.53;8.93;;;6.60;99.90;;;;;;4935969;29;20469;-76
2022/01/23 13:53:24;;;;;;;12.03;7.57;;;6.70;99.90;;;;;;4937379;29;20561;-76
2022/01/23 13:58:38;;;;;;;12.67;7.43;;;6.70;99.90;;;;;;4936204;29;20425;-76
2022/01/23 14:01:30;;;;;;;14.90;9.43;;;6.70;99.90;;;;;;4936146;29;20580;-76
2022/01/23 14:03:57;;;;;;;13.57;8.30;;;6.70;99.90;;;;;;4936118;29;20445;-76
2022/01/23 14:06:25;;;;;;;15.40;9.37;;;6.70;99.90;;;;;;4936377;29;20544;-76
2022/01/23 14:09:06;;;;;;;13.27;8.63;;;6.70;99.90;;;;;;4936139;29;20458;-77
2022/01/23 14:11:34;;;;;;;16.30;11.00;;;6.80;99.90;;;;;;4936122;29;20473;-76
2022/01/23 14:14:16;;;;;;;14.40;9.00;;;6.80;99.90;;;;;;4936399;29;20504;-76
2022/01/23 14:16:44;;;;;;;16.60;9.13;;;6.70;99.90;;;;;;4934207;29;20525;-76
2022/01/23 14:19:20;;;;;;;13.67;9.73;;;6.70;99.90;;;;;;4935993;29;20449;-76
2022/01/23 14:21:49;;;;;;;12.57;8.83;;;6.70;99.90;;;;;;4936081;29;20528;-76
2022/01/23 14:24:26;;;;;;;13.67;8.60;;;6.60;99.90;;;;;;4944961;29;20492;-76
2022/01/23 14:26:59;;;;;;;12.33;8.63;;;6.70;99.90;;;;;;4955312;29;20561;-75
2022/01/23 14:29:26;;;;;;;10.90;7.97;;;6.70;99.90;;;;;;4955102;29;20496;-76
2022/01/23 14:32:16;;;;;;;11.70;8.23;;;6.70;99.90;;;;;;4955095;29;20591;-76
2022/01/23 14:34:43;;;;;;;18.50;11.17;;;6.70;99.90;;;;;;4955387;29;21063;-76
2022/01/23 14:37:10;;;;;;;18.87;11.47;;;6.70;99.90;;;;;;4955036;29;20531;-75
2022/01/23 14:39:39;;;;;;;13.30;8.43;;;6.60;99.90;;;;;;4954661;29;20905;-75
2022/01/23 14:42:14;;;;;;;13.47;9.17;;;6.60;99.90;;;;;;4954616;29;20489;-75
2022/01/23 14:44:42;;;;;;;12.93;8.30;;;6.60;99.90;;;;;;4954643;29;21011;-75
2022/01/23 14:47:10;;;;;;;14.67;9.43;;;6.60;99.90;;;;;;4954575;29;20492;-75
2022/01/23 14:49:41;;;;;;;14.13;7.83;;;6.50;99.90;;;;;;4954786;29;20541;-75
2022/01/23 14:52:13;;;;;;;9.27;6.73;;;6.50;99.90;;;;;;4954354;28;21002;-75
2022/01/23 14:54:42;;;;;;;8.97;6.43;;;6.50;99.90;;;;;;4955497;29;20445;-75
2022/01/23 14:57:15;;;;;;;11.33;7.07;;;6.60;99.90;;;;;;4954857;29;20881;-75
2022/01/23 14:59:43;;;;;;;11.00;7.30;;;6.60;99.90;;;;;;4954556;29;20441;-75
2022/01/23 15:02:10;;;;;;;20.47;12.07;;;6.50;99.90;;;;;;4955204;29;20655;-75
2022/01/23 15:04:45;;;;;;;19.70;11.07;;;6.50;99.90;;;;;;4955658;29;20488;-75
2022/01/23 15:07:16;;;;;;;22.43;12.80;;;6.50;99.90;;;;;;4955432;29;20452;-76
2022/01/23 15:09:46;;;;;;;24.67;14.23;;;6.50;99.90;;;;;;4954975;29;20460;-77
2022/01/23 15:12:14;;;;;;;12.07;8.20;;;6.40;99.90;;;;;;4955296;29;20496;-77
2022/01/23 15:14:41;;;;;;;15.63;9.33;;;6.40;99.90;;;;;;4954870;29;20465;-78
2022/01/23 15:17:08;;;;;;;13.90;7.23;;;6.40;99.90;;;;;;4955397;29;20536;-78
2022/01/23 15:19:36;;;;;;;10.20;7.10;;;6.40;99.90;;;;;;4954699;29;20463;-78
2022/01/23 15:22:04;;;;;;;8.77;6.23;;;6.40;99.90;;;;;;4954892;29;20828;-78
2022/01/23 15:24:31;;;;;;;8.53;4.90;;;6.40;99.90;;;;;;4954912;29;20457;-78
2022/01/23 15:26:59;;;;;;;7.73;5.20;;;6.40;99.90;;;;;;4954717;29;20519;-78
2022/01/23 15:29:26;;;;;;;9.80;5.50;;;6.30;99.90;;;;;;4954913;29;20528;-78
2022/01/23 15:31:53;;;;;;;8.20;5.93;;;6.30;99.90;;;;;;4954491;29;20918;-78
2022/01/23 15:34:20;;;;;;;7.80;5.20;;;6.30;99.90;;;;;;4954568;29;20993;-78
2022/01/23 15:36:48;;;;;;;7.33;5.50;;;6.30;99.90;;;;;;4954554;29;20544;-77
2022/01/23 15:39:15;;;;;;;8.07;5.87;;;6.30;99.90;;;;;;4954383;29;20457;-78
2022/01/23 15:41:42;;;;;;;9.10;5.90;;;6.30;99.90;;;;;;4954327;29;20480;-78
2022/01/23 15:44:11;;;;;;;8.40;6.00;;;6.40;99.90;;;;;;4954676;29;20539;-78
2022/01/23 15:46:38;;;;;;;10.30;5.30;;;6.40;99.90;;;;;;4954311;29;20489;-78
2022/01/23 15:49:06;;;;;;;7.97;5.70;;;6.30;99.90;;;;;;4954196;29;20537;-78
2022/01/23 15:51:33;;;;;;;10.57;6.63;;;6.30;99.90;;;;;;4954487;29;20512;-76
2022/01/23 15:54:00;;;;;;;7.00;5.63;;;6.30;99.90;;;;;;4954991;29;20494;-78
2022/01/23 15:56:27;;;;;;;9.60;6.30;;;6.30;99.90;;;;;;4955983;29;20547;-78
2022/01/23 15:58:54;;;;;;;8.17;5.10;;;6.30;99.90;;;;;;4955208;29;20484;-79
2022/01/23 16:01:22;;;;;;;7.77;5.60;;;6.30;99.90;;;;;;4955486;29;20544;-79
2022/01/23 16:03:49;;;;;;;7.47;5.47;;;6.30;99.90;;;;;;4954900;28;20491;-79
2022/01/23 16:06:16;;;;;;;8.13;5.53;;;6.20;99.90;;;;;;4955316;29;20452;-79
2022/01/23 16:08:43;;;;;;;14.77;8.43;;;6.20;99.90;;;;;;4955259;29;20463;-79
2022/01/23 16:11:10;;;;;;;12.27;6.63;;;6.20;99.90;;;;;;4955409;29;20505;-79
2022/01/23 16:13:37;;;;;;;10.20;6.90;;;6.20;99.90;;;;;;4953974;29;20496;-78
2022/01/23 16:16:04;;;;;;;9.20;6.50;;;6.20;99.90;;;;;;4954053;29;20548;-78
2022/01/23 16:18:32;;;;;;;12.03;7.03;;;6.20;99.90;;;;;;4953968;29;20485;-78
2022/01/23 16:20:59;;;;;;;12.67;9.00;;;6.20;99.90;;;;;;4953753;29;20567;-77
2022/01/23 16:23:26;;;;;;;11.63;7.07;;;6.10;99.90;;;;;;4954094;29;20481;-78
2022/01/23 16:25:54;;;;;;;13.37;7.27;;;6.10;99.90;;;;;;4953945;29;20958;-71
2022/01/23 16:28:21;;;;;;;10.73;7.93;;;6.20;99.90;;;;;;4953562;29;20498;-72
2022/01/23 16:30:51;;;;;;;11.47;8.23;;;6.20;99.90;;;;;;4953851;29;20319;-71
2022/01/23 16:33:18;;;;;;;17.73;10.63;;;6.20;99.90;;;;;;4953775;29;21088;-71
2022/01/23 16:35:47;;;;;;;16.47;10.83;;;6.20;99.90;;;;;;4953948;29;20540;-77
2022/01/23 16:38:14;;;;;;;16.73;10.60;;;6.20;99.90;;;;;;4954478;29;20544;-78
2022/01/23 16:40:41;;;;;;;17.83;11.60;;;6.20;99.90;;;;;;4955037;29;20560;-79
2022/01/23 16:43:09;;;;;;;18.83;12.40;;;6.20;99.90;;;;;;4954094;29;20536;-79
2022/01/23 16:45:36;;;;;;;19.57;14.10;;;6.20;99.90;;;;;;4954982;29;20536;-79
2022/01/23 16:48:03;;;;;;;32.40;26.37;;;6.20;99.90;;;;;;4954548;29;20541;-79
2022/01/23 16:50:31;;;;;;;25.13;18.47;;;6.10;99.90;;;;;;4953398;29;20540;-78
2022/01/23 16:52:59;;;;;;;15.57;11.90;;;6.10;99.90;;;;;;4953971;29;20496;-78
2022/01/23 16:55:26;;;;;;;14.83;11.03;;;6.10;99.90;;;;;;4953582;29;20990;-79
2022/01/23 16:57:53;;;;;;;19.63;10.83;;;6.10;99.90;;;;;;4953808;29;20499;-78
2022/01/23 17:00:20;;;;;;;18.77;12.60;;;6.10;99.90;;;;;;4953744;29;20480;-78
2022/01/23 17:02:47;;;;;;;18.03;10.47;;;6.00;99.90;;;;;;4954269;29;20484;-78
2022/01/23 17:05:15;;;;;;;16.20;10.40;;;6.10;99.90;;;;;;4954292;29;20492;-78
2022/01/23 17:07:43;;;;;;;17.03;10.40;;;6.10;99.90;;;;;;4954326;29;20488;-78
2022/01/23 17:10:11;;;;;;;15.07;9.70;;;6.10;99.90;;;;;;4954623;29;20516;-78
2022/01/23 17:12:39;;;;;;;13.73;9.30;;;6.10;99.90;;;;;;4953678;29;20531;-80
2022/01/23 17:15:07;;;;;;;13.43;8.80;;;6.10;99.90;;;;;;4954845;28;20458;-79
2022/01/23 17:17:34;;;;;;;10.77;8.50;;;6.00;99.90;;;;;;4956139;29;20551;-78
2022/01/23 17:20:01;;;;;;;11.10;7.47;;;6.00;99.90;;;;;;4956527;29;20488;-78
2022/01/23 17:22:28;;;;;;;13.47;8.63;;;6.00;99.90;;;;;;4956881;29;20926;-79
2022/01/23 17:24:55;;;;;;;12.97;9.70;;;6.00;99.90;;;;;;4956561;29;20531;-78
2022/01/23 17:27:24;;;;;;;15.40;10.80;;;5.90;99.90;;;;;;4956565;29;20905;-78
2022/01/23 17:29:51;;;;;;;12.57;9.60;;;6.00;99.90;;;;;;4956390;29;20453;-78
2022/01/23 17:32:21;;;;;;;22.53;12.60;;;6.00;99.90;;;;;;4957054;29;20475;-78
2022/01/23 17:34:48;;;;;;;19.60;12.20;;;6.00;99.90;;;;;;4956757;29;20878;-79
2022/01/23 17:37:15;;;;;;;19.83;13.70;;;6.00;99.90;;;;;;4957255;29;20453;-78
2022/01/23 17:39:43;;;;;;;32.87;17.67;;;6.00;99.90;;;;;;4956377;29;20456;-77
2022/01/23 17:42:11;;;;;;;29.10;18.73;;;6.00;99.90;;;;;;4955630;29;20551;-77
2022/01/23 17:44:44;;;;;;;24.00;16.27;;;6.00;99.90;;;;;;4955589;29;20480;-77
2022/01/23 17:47:21;;;;;;;36.57;20.90;;;6.00;99.90;;;;;;4956114;29;20511;-80
2022/01/23 17:49:54;;;;;;;25.97;17.97;;;5.90;99.90;;;;;;4955522;29;20496;-77
2022/01/23 17:52:22;;;;;;;27.10;15.20;;;5.90;99.90;;;;;;4955688;29;20626;-76
2022/01/23 17:54:49;;;;;;;18.80;11.70;;;5.90;99.90;;;;;;4955339;29;20575;-77
2022/01/23 17:57:16;;;;;;;21.13;12.73;;;5.90;99.90;;;;;;4955785;29;20543;-77
2022/01/23 17:59:44;;;;;;;15.70;10.37;;;5.90;99.90;;;;;;4955441;29;20539;-78
2022/01/23 18:02:14;;;;;;;19.83;12.10;;;5.90;99.90;;;;;;4955279;29;20563;-77
2022/01/23 18:04:41;;;;;;;17.30;11.20;;;5.90;99.90;;;;;;4955637;29;20891;-78
2022/01/23 18:07:09;;;;;;;13.37;9.67;;;5.90;99.90;;;;;;4955518;29;20484;-80
2022/01/23 18:09:37;;;;;;;14.83;9.97;;;5.90;99.90;;;;;;4955094;29;20460;-78
2022/01/23 18:12:05;;;;;;;14.60;10.00;;;5.90;99.90;;;;;;4955547;29;20924;-78
2022/01/23 18:14:34;;;;;;;18.17;11.80;;;5.90;99.90;;;;;;4955207;29;20521;-78
2022/01/23 18:17:03;;;;;;;19.17;14.13;;;5.90;99.90;;;;;;4955209;29;20472;-78
2022/01/23 18:19:30;;;;;;;22.97;15.77;;;5.90;99.90;;;;;;4955004;29;20996;-78
2022/01/23 18:21:57;;;;;;;20.20;12.33;;;5.90;99.90;;;;;;4948619;29;20490;-72
2022/01/23 18:24:24;;;;;;;49.90;27.13;;;5.80;99.90;;;;;;4935912;29;20489;-78
2022/01/23 18:26:52;;;;;;;48.50;27.70;;;5.80;99.90;;;;;;4935822;29;20485;-78
2022/01/23 18:29:19;;;;;;;25.80;16.13;;;5.80;99.90;;;;;;4935442;29;20461;-77
2022/01/23 18:31:46;;;;;;;19.90;15.17;;;5.90;99.90;;;;;;4935818;29;20516;-77
2022/01/23 18:34:14;;;;;;;26.00;16.40;;;5.80;99.90;;;;;;4935717;29;20576;-76
2022/01/23 18:36:41;;;;;;;21.63;15.57;;;5.90;99.90;;;;;;4935893;29;21040;-77
2022/01/23 18:39:09;;;;;;;25.33;16.47;;;5.70;99.90;;;;;;4936446;29;20462;-77
2022/01/23 18:41:37;;;;;;;18.10;11.70;;;5.70;99.90;;;;;;4936735;29;20517;-77
2022/01/23 18:44:05;;;;;;;16.37;11.33;;;5.80;99.90;;;;;;4936716;29;20533;-77
2022/01/23 18:46:32;;;;;;;24.40;14.67;;;5.80;99.90;;;;;;4936533;29;20465;-77